sensor_id;sensor_type;location;lat;lon;timestamp;P1;durP1;ratioP1;P2;durP2;ratioP2
3911;SDS011;1971;51.778;10.330;2023-12-14T00:00:14;47.10;;;5.80;;
3911;SDS011;1971;51.778;10.330;2023-12-14T00:02:47;42.43;;;5.63;;
3911;SDS011;1971;51.778;10.330;2023-12-14T00:05:17;33.60;;;6.07;;
3911;SDS011;1971;51.778;10.330;2023-12-14T00:07:48;29.20;;;5.07;;
3911;SDS011;1971;51.778;10.330;2023-12-14T00:10:18;32.00;;;6.70;;
3911;SDS011;1971;51.778;10.330;2023-12-14T00:12:48;35.53;;;5.70;;
3911;SDS011;1971;51.778;10.330;2023-12-14T00:15:20;28.47;;;5.37;;
3911;SDS011;1971;51.778;10.330;2023-12-14T00:17:53;35.73;;;5.13;;
3911;SDS011;1971;51.778;10.330;2023-12-14T00:20:23;68.70;;;6.73;;
3911;SDS011;1971;51.778;10.330;2023-12-14T00:22:53;60.97;;;6.00;;
3911;SDS011;1971;51.778;10.330;2023-12-14T00:25:23;48.97;;;5.70;;
3911;SDS011;1971;51.778;10.330;2023-12-14T00:27:53;34.97;;;4.63;;
3911;SDS011;1971;51.778;10.330;2023-12-14T00:30:23;36.00;;;4.93;;
3911;SDS011;1971;51.778;10.330;2023-12-14T00:32:56;28.30;;;4.93;;
3911;SDS011;1971;51.778;10.330;2023-12-14T00:35:26;14.70;;;2.27;;
3911;SDS011;1971;51.778;10.330;2023-12-14T00:37:56;17.80;;;3.33;;
3911;SDS011;1971;51.778;10.330;2023-12-14T00:40:26;15.80;;;3.13;;
3911;SDS011;1971;51.778;10.330;2023-12-14T00:42:57;6.50;;;2.97;;
3911;SDS011;1971;51.778;10.330;2023-12-14T00:45:27;17.60;;;3.80;;
3911;SDS011;1971;51.778;10.330;2023-12-14T00:48:00;47.30;;;5.47;;
3911;SDS011;1971;51.778;10.330;2023-12-14T00:50:30;36.60;;;5.20;;
3911;SDS011;1971;51.778;10.330;2023-12-14T00:53:00;69.73;;;6.00;;
3911;SDS011;1971;51.778;10.330;2023-12-14T00:55:30;105.57;;;10.27;;
3911;SDS011;1971;51.778;10.330;2023-12-14T00:58:00;116.53;;;13.10;;
3911;SDS011;1971;51.778;10.330;2023-12-14T01:00:30;149.57;;;14.40;;
3911;SDS011;1971;51.778;10.330;2023-12-14T01:03:04;127.60;;;9.30;;
3911;SDS011;1971;51.778;10.330;2023-12-14T01:05:34;133.17;;;12.80;;
3911;SDS011;1971;51.778;10.330;2023-12-14T01:08:04;62.17;;;5.10;;
3911;SDS011;1971;51.778;10.330;2023-12-14T01:10:35;59.67;;;7.70;;
3911;SDS011;1971;51.778;10.330;2023-12-14T01:13:02;63.83;;;5.43;;
3911;SDS011;1971;51.778;10.330;2023-12-14T01:15:33;99.50;;;9.33;;
3911;SDS011;1971;51.778;10.330;2023-12-14T01:18:06;71.93;;;7.17;;
3911;SDS011;1971;51.778;10.330;2023-12-14T01:20:37;103.40;;;9.20;;
3911;SDS011;1971;51.778;10.330;2023-12-14T01:23:09;35.07;;;3.70;;
3911;SDS011;1971;51.778;10.330;2023-12-14T01:25:39;70.63;;;8.90;;
3911;SDS011;1971;51.778;10.330;2023-12-14T01:28:09;99.17;;;9.00;;
3911;SDS011;1971;51.778;10.330;2023-12-14T01:30:40;45.33;;;4.07;;
3911;SDS011;1971;51.778;10.330;2023-12-14T01:33:14;90.87;;;5.73;;
3911;SDS011;1971;51.778;10.330;2023-12-14T01:35:44;33.27;;;2.60;;
3911;SDS011;1971;51.778;10.330;2023-12-14T01:38:14;67.00;;;5.80;;
3911;SDS011;1971;51.778;10.330;2023-12-14T01:40:44;27.10;;;3.30;;
3911;SDS011;1971;51.778;10.330;2023-12-14T01:43:15;28.73;;;2.80;;
3911;SDS011;1971;51.778;10.330;2023-12-14T01:45:45;31.97;;;3.27;;
3911;SDS011;1971;51.778;10.330;2023-12-14T01:48:18;55.33;;;5.70;;
3911;SDS011;1971;51.778;10.330;2023-12-14T01:50:48;49.73;;;5.73;;
3911;SDS011;1971;51.778;10.330;2023-12-14T01:53:19;41.90;;;6.37;;
3911;SDS011;1971;51.778;10.330;2023-12-14T01:55:49;29.83;;;3.27;;
3911;SDS011;1971;51.778;10.330;2023-12-14T01:58:20;15.57;;;2.40;;
3911;SDS011;1971;51.778;10.330;2023-12-14T02:00:52;14.83;;;2.80;;
3911;SDS011;1971;51.778;10.330;2023-12-14T02:03:31;8.50;;;2.33;;
3911;SDS011;1971;51.778;10.330;2023-12-14T02:06:01;9.43;;;2.20;;
3911;SDS011;1971;51.778;10.330;2023-12-14T02:08:31;6.87;;;1.70;;
3911;SDS011;1971;51.778;10.330;2023-12-14T02:11:01;13.50;;;1.93;;
3911;SDS011;1971;51.778;10.330;2023-12-14T02:13:32;8.53;;;2.53;;
3911;SDS011;1971;51.778;10.330;2023-12-14T02:16:02;2.57;;;1.63;;
3911;SDS011;1971;51.778;10.330;2023-12-14T02:18:36;6.70;;;2.33;;
3911;SDS011;1971;51.778;10.330;2023-12-14T02:21:07;3.33;;;1.87;;
3911;SDS011;1971;51.778;10.330;2023-12-14T02:23:44;1.47;;;1.13;;
3911;SDS011;1971;51.778;10.330;2023-12-14T02:26:15;1.77;;;1.40;;
3911;SDS011;1971;51.778;10.330;2023-12-14T02:28:45;1.00;;;0.90;;
3911;SDS011;1971;51.778;10.330;2023-12-14T02:31:15;1.60;;;1.50;;
3911;SDS011;1971;51.778;10.330;2023-12-14T02:33:47;3.43;;;1.37;;
3911;SDS011;1971;51.778;10.330;2023-12-14T02:36:17;1.60;;;1.30;;
3911;SDS011;1971;51.778;10.330;2023-12-14T02:38:50;1.67;;;1.57;;
3911;SDS011;1971;51.778;10.330;2023-12-14T02:41:20;2.60;;;1.50;;
3911;SDS011;1971;51.778;10.330;2023-12-14T02:43:50;1.53;;;1.20;;
3911;SDS011;1971;51.778;10.330;2023-12-14T02:46:20;1.80;;;1.10;;
3911;SDS011;1971;51.778;10.330;2023-12-14T02:48:50;1.40;;;1.27;;
3911;SDS011;1971;51.778;10.330;2023-12-14T02:51:21;1.33;;;1.10;;
3911;SDS011;1971;51.778;10.330;2023-12-14T02:53:54;0.90;;;0.70;;
3911;SDS011;1971;51.778;10.330;2023-12-14T02:56:25;3.47;;;1.17;;
3911;SDS011;1971;51.778;10.330;2023-12-14T02:58:55;1.43;;;0.60;;
3911;SDS011;1971;51.778;10.330;2023-12-14T03:01:25;0.70;;;0.50;;
3911;SDS011;1971;51.778;10.330;2023-12-14T03:03:55;1.00;;;0.87;;
3911;SDS011;1971;51.778;10.330;2023-12-14T03:06:26;0.80;;;0.80;;
3911;SDS011;1971;51.778;10.330;2023-12-14T03:08:59;1.03;;;0.60;;
3911;SDS011;1971;51.778;10.330;2023-12-14T03:11:30;1.17;;;1.00;;
3911;SDS011;1971;51.778;10.330;2023-12-14T03:14:00;1.50;;;1.30;;
3911;SDS011;1971;51.778;10.330;2023-12-14T03:16:30;1.43;;;1.10;;
3911;SDS011;1971;51.778;10.330;2023-12-14T03:19:02;1.10;;;0.97;;
3911;SDS011;1971;51.778;10.330;2023-12-14T03:21:32;1.00;;;0.80;;
3911;SDS011;1971;51.778;10.330;2023-12-14T03:24:05;0.90;;;0.70;;
3911;SDS011;1971;51.778;10.330;2023-12-14T03:26:36;1.33;;;0.80;;
3911;SDS011;1971;51.778;10.330;2023-12-14T03:29:06;0.70;;;0.60;;
3911;SDS011;1971;51.778;10.330;2023-12-14T03:31:37;0.90;;;0.80;;
3911;SDS011;1971;51.778;10.330;2023-12-14T03:34:08;0.80;;;0.60;;
3911;SDS011;1971;51.778;10.330;2023-12-14T03:36:38;1.53;;;0.73;;
3911;SDS011;1971;51.778;10.330;2023-12-14T03:39:11;1.10;;;0.70;;
3911;SDS011;1971;51.778;10.330;2023-12-14T03:41:43;0.93;;;0.83;;
3911;SDS011;1971;51.778;10.330;2023-12-14T03:44:13;0.90;;;0.70;;
3911;SDS011;1971;51.778;10.330;2023-12-14T03:46:43;0.60;;;0.50;;
3911;SDS011;1971;51.778;10.330;2023-12-14T03:49:14;0.80;;;0.60;;
3911;SDS011;1971;51.778;10.330;2023-12-14T03:51:44;0.70;;;0.60;;
3911;SDS011;1971;51.778;10.330;2023-12-14T03:54:17;0.73;;;0.73;;
3911;SDS011;1971;51.778;10.330;2023-12-14T03:56:48;1.63;;;0.70;;
3911;SDS011;1971;51.778;10.330;2023-12-14T03:59:18;4.00;;;1.13;;
3911;SDS011;1971;51.778;10.330;2023-12-14T04:01:48;1.13;;;0.73;;
3911;SDS011;1971;51.778;10.330;2023-12-14T04:04:19;1.07;;;0.97;;
3911;SDS011;1971;51.778;10.330;2023-12-14T04:06:49;1.27;;;1.17;;
3911;SDS011;1971;51.778;10.330;2023-12-14T04:09:22;1.57;;;0.70;;
3911;SDS011;1971;51.778;10.330;2023-12-14T04:11:52;1.33;;;0.97;;
3911;SDS011;1971;51.778;10.330;2023-12-14T04:14:22;1.00;;;0.97;;
3911;SDS011;1971;51.778;10.330;2023-12-14T04:16:53;18.87;;;2.70;;
3911;SDS011;1971;51.778;10.330;2023-12-14T04:19:24;29.30;;;3.43;;
3911;SDS011;1971;51.778;10.330;2023-12-14T04:21:54;55.40;;;5.40;;
3911;SDS011;1971;51.778;10.330;2023-12-14T04:24:27;16.13;;;2.53;;
3911;SDS011;1971;51.778;10.330;2023-12-14T04:26:57;28.60;;;3.90;;
3911;SDS011;1971;51.778;10.330;2023-12-14T04:29:28;94.10;;;8.03;;
3911;SDS011;1971;51.778;10.330;2023-12-14T04:31:58;68.43;;;6.03;;
3911;SDS011;1971;51.778;10.330;2023-12-14T04:34:28;70.43;;;6.73;;
3911;SDS011;1971;51.778;10.330;2023-12-14T04:36:59;49.70;;;5.90;;
3911;SDS011;1971;51.778;10.330;2023-12-14T04:39:31;72.37;;;6.40;;
3911;SDS011;1971;51.778;10.330;2023-12-14T04:42:02;64.73;;;7.00;;
3911;SDS011;1971;51.778;10.330;2023-12-14T04:44:33;89.07;;;10.57;;
3911;SDS011;1971;51.778;10.330;2023-12-14T04:47:03;168.37;;;12.40;;
3911;SDS011;1971;51.778;10.330;2023-12-14T04:49:35;272.90;;;18.17;;
3911;SDS011;1971;51.778;10.330;2023-12-14T04:52:05;179.83;;;16.73;;
3911;SDS011;1971;51.778;10.330;2023-12-14T04:54:38;276.30;;;21.83;;
3911;SDS011;1971;51.778;10.330;2023-12-14T04:57:09;335.60;;;22.47;;
3911;SDS011;1971;51.778;10.330;2023-12-14T04:59:40;116.20;;;9.97;;
3911;SDS011;1971;51.778;10.330;2023-12-14T05:02:08;79.37;;;7.10;;
3911;SDS011;1971;51.778;10.330;2023-12-14T05:04:39;122.83;;;10.90;;
3911;SDS011;1971;51.778;10.330;2023-12-14T05:07:09;149.47;;;10.63;;
3911;SDS011;1971;51.778;10.330;2023-12-14T05:09:41;144.00;;;12.00;;
3911;SDS011;1971;51.778;10.330;2023-12-14T05:12:12;121.43;;;10.27;;
3911;SDS011;1971;51.778;10.330;2023-12-14T05:14:42;130.47;;;10.40;;
3911;SDS011;1971;51.778;10.330;2023-12-14T05:17:12;101.33;;;9.43;;
3911;SDS011;1971;51.778;10.330;2023-12-14T05:19:42;57.00;;;7.07;;
3911;SDS011;1971;51.778;10.330;2023-12-14T05:22:12;39.80;;;6.53;;
3911;SDS011;1971;51.778;10.330;2023-12-14T05:24:47;84.67;;;8.73;;
3911;SDS011;1971;51.778;10.330;2023-12-14T05:27:17;62.00;;;7.70;;
3911;SDS011;1971;51.778;10.330;2023-12-14T05:29:47;82.17;;;8.00;;
3911;SDS011;1971;51.778;10.330;2023-12-14T05:32:18;66.93;;;8.27;;
3911;SDS011;1971;51.778;10.330;2023-12-14T05:34:48;61.10;;;8.37;;
3911;SDS011;1971;51.778;10.330;2023-12-14T05:37:18;39.70;;;6.23;;
3911;SDS011;1971;51.778;10.330;2023-12-14T05:39:51;23.97;;;4.33;;
3911;SDS011;1971;51.778;10.330;2023-12-14T05:42:21;37.90;;;5.57;;
3911;SDS011;1971;51.778;10.330;2023-12-14T05:44:52;25.50;;;5.87;;
3911;SDS011;1971;51.778;10.330;2023-12-14T05:47:22;9.23;;;3.10;;
3911;SDS011;1971;51.778;10.330;2023-12-14T05:49:52;15.23;;;3.70;;
3911;SDS011;1971;51.778;10.330;2023-12-14T05:52:23;15.33;;;4.33;;
3911;SDS011;1971;51.778;10.330;2023-12-14T05:54:55;12.60;;;3.10;;
3911;SDS011;1971;51.778;10.330;2023-12-14T05:57:30;25.03;;;5.03;;
3911;SDS011;1971;51.778;10.330;2023-12-14T06:00:00;28.70;;;6.40;;
3911;SDS011;1971;51.778;10.330;2023-12-14T06:02:30;37.77;;;4.67;;
3911;SDS011;1971;51.778;10.330;2023-12-14T06:05:03;25.50;;;3.10;;
3911;SDS011;1971;51.778;10.330;2023-12-14T06:07:36;22.47;;;4.90;;
3911;SDS011;1971;51.778;10.330;2023-12-14T06:10:10;24.03;;;4.17;;
3911;SDS011;1971;51.778;10.330;2023-12-14T06:12:40;41.23;;;5.83;;
3911;SDS011;1971;51.778;10.330;2023-12-14T06:15:10;30.17;;;4.10;;
3911;SDS011;1971;51.778;10.330;2023-12-14T06:17:40;48.90;;;5.63;;
3911;SDS011;1971;51.778;10.330;2023-12-14T06:20:11;28.03;;;3.70;;
3911;SDS011;1971;51.778;10.330;2023-12-14T06:22:41;62.63;;;7.33;;
3911;SDS011;1971;51.778;10.330;2023-12-14T06:25:14;50.43;;;6.50;;
3911;SDS011;1971;51.778;10.330;2023-12-14T06:27:45;25.13;;;3.90;;
3911;SDS011;1971;51.778;10.330;2023-12-14T06:30:16;24.13;;;3.27;;
3911;SDS011;1971;51.778;10.330;2023-12-14T06:32:46;33.53;;;5.70;;
3911;SDS011;1971;51.778;10.330;2023-12-14T06:35:16;20.23;;;3.57;;
3911;SDS011;1971;51.778;10.330;2023-12-14T06:37:47;24.13;;;4.00;;
3911;SDS011;1971;51.778;10.330;2023-12-14T06:40:20;15.77;;;3.53;;
3911;SDS011;1971;51.778;10.330;2023-12-14T06:42:50;36.53;;;5.23;;
3911;SDS011;1971;51.778;10.330;2023-12-14T06:45:20;19.40;;;3.23;;
3911;SDS011;1971;51.778;10.330;2023-12-14T06:47:50;39.27;;;6.33;;
3911;SDS011;1971;51.778;10.330;2023-12-14T06:50:20;40.90;;;4.70;;
3911;SDS011;1971;51.778;10.330;2023-12-14T06:52:51;59.67;;;5.90;;
3911;SDS011;1971;51.778;10.330;2023-12-14T06:55:23;41.60;;;6.13;;
3911;SDS011;1971;51.778;10.330;2023-12-14T06:57:54;65.97;;;6.10;;
3911;SDS011;1971;51.778;10.330;2023-12-14T07:00:24;68.00;;;6.17;;
3911;SDS011;1971;51.778;10.330;2023-12-14T07:02:56;38.90;;;4.43;;
3911;SDS011;1971;51.778;10.330;2023-12-14T07:05:26;222.47;;;11.80;;
3911;SDS011;1971;51.778;10.330;2023-12-14T07:07:56;124.90;;;12.00;;
3911;SDS011;1971;51.778;10.330;2023-12-14T07:10:30;201.70;;;14.53;;
3911;SDS011;1971;51.778;10.330;2023-12-14T07:13:00;104.57;;;9.13;;
3911;SDS011;1971;51.778;10.330;2023-12-14T07:15:31;133.60;;;11.00;;
3911;SDS011;1971;51.778;10.330;2023-12-14T07:18:01;104.17;;;9.63;;
3911;SDS011;1971;51.778;10.330;2023-12-14T07:20:31;38.40;;;6.40;;
3911;SDS011;1971;51.778;10.330;2023-12-14T07:23:01;151.67;;;13.23;;
3911;SDS011;1971;51.778;10.330;2023-12-14T07:25:34;106.90;;;16.43;;
3911;SDS011;1971;51.778;10.330;2023-12-14T07:28:04;191.97;;;17.70;;
3911;SDS011;1971;51.778;10.330;2023-12-14T07:30:34;68.47;;;9.43;;
3911;SDS011;1971;51.778;10.330;2023-12-14T07:33:07;117.20;;;12.43;;
3911;SDS011;1971;51.778;10.330;2023-12-14T07:35:37;135.90;;;14.50;;
3911;SDS011;1971;51.778;10.330;2023-12-14T07:38:10;81.57;;;11.60;;
3911;SDS011;1971;51.778;10.330;2023-12-14T07:40:43;174.53;;;12.80;;
3911;SDS011;1971;51.778;10.330;2023-12-14T07:43:13;192.83;;;16.40;;
3911;SDS011;1971;51.778;10.330;2023-12-14T07:45:43;103.07;;;9.70;;
3911;SDS011;1971;51.778;10.330;2023-12-14T07:48:14;205.03;;;13.83;;
3911;SDS011;1971;51.778;10.330;2023-12-14T07:50:44;291.20;;;19.93;;
3911;SDS011;1971;51.778;10.330;2023-12-14T07:53:15;236.13;;;16.70;;
3911;SDS011;1971;51.778;10.330;2023-12-14T07:55:47;271.80;;;18.63;;
3911;SDS011;1971;51.778;10.330;2023-12-14T07:58:18;128.70;;;12.20;;
3911;SDS011;1971;51.778;10.330;2023-12-14T08:00:48;136.13;;;10.00;;
3911;SDS011;1971;51.778;10.330;2023-12-14T08:03:18;402.63;;;22.37;;
3911;SDS011;1971;51.778;10.330;2023-12-14T08:05:48;263.37;;;16.90;;
3911;SDS011;1971;51.778;10.330;2023-12-14T08:08:18;313.00;;;20.67;;
3911;SDS011;1971;51.778;10.330;2023-12-14T08:10:51;221.60;;;17.73;;
3911;SDS011;1971;51.778;10.330;2023-12-14T08:13:21;130.50;;;11.57;;
3911;SDS011;1971;51.778;10.330;2023-12-14T08:15:52;174.43;;;14.53;;
3911;SDS011;1971;51.778;10.330;2023-12-14T08:18:22;148.23;;;13.20;;
3911;SDS011;1971;51.778;10.330;2023-12-14T08:20:52;193.33;;;16.67;;
3911;SDS011;1971;51.778;10.330;2023-12-14T08:23:23;144.53;;;14.07;;
3911;SDS011;1971;51.778;10.330;2023-12-14T08:25:57;170.27;;;12.90;;
3911;SDS011;1971;51.778;10.330;2023-12-14T08:28:27;87.80;;;6.80;;
3911;SDS011;1971;51.778;10.330;2023-12-14T08:30:57;170.73;;;14.73;;
3911;SDS011;1971;51.778;10.330;2023-12-14T08:33:29;151.73;;;14.40;;
3911;SDS011;1971;51.778;10.330;2023-12-14T08:35:59;237.93;;;21.13;;
3911;SDS011;1971;51.778;10.330;2023-12-14T08:38:29;242.10;;;17.93;;
3911;SDS011;1971;51.778;10.330;2023-12-14T08:41:02;250.33;;;21.67;;
3911;SDS011;1971;51.778;10.330;2023-12-14T08:43:33;139.10;;;13.70;;
3911;SDS011;1971;51.778;10.330;2023-12-14T08:46:03;161.90;;;15.33;;
3911;SDS011;1971;51.778;10.330;2023-12-14T08:48:33;205.23;;;17.20;;
3911;SDS011;1971;51.778;10.330;2023-12-14T08:51:04;260.73;;;18.70;;
3911;SDS011;1971;51.778;10.330;2023-12-14T08:53:35;338.73;;;21.87;;
3911;SDS011;1971;51.778;10.330;2023-12-14T08:56:09;396.73;;;24.33;;
3911;SDS011;1971;51.778;10.330;2023-12-14T08:58:39;317.30;;;23.97;;
3911;SDS011;1971;51.778;10.330;2023-12-14T09:01:09;162.80;;;12.37;;
3911;SDS011;1971;51.778;10.330;2023-12-14T09:03:39;258.73;;;16.57;;
3911;SDS011;1971;51.778;10.330;2023-12-14T09:06:09;217.43;;;15.80;;
3911;SDS011;1971;51.778;10.330;2023-12-14T09:08:38;115.00;;;10.37;;
3911;SDS011;1971;51.778;10.330;2023-12-14T09:11:11;222.97;;;18.23;;
3911;SDS011;1971;51.778;10.330;2023-12-14T09:13:42;240.43;;;18.30;;
3911;SDS011;1971;51.778;10.330;2023-12-14T09:16:12;222.40;;;21.37;;
3911;SDS011;1971;51.778;10.330;2023-12-14T09:18:43;199.57;;;17.83;;
3911;SDS011;1971;51.778;10.330;2023-12-14T09:21:13;127.30;;;10.90;;
3911;SDS011;1971;51.778;10.330;2023-12-14T09:23:46;107.97;;;9.47;;
3911;SDS011;1971;51.778;10.330;2023-12-14T09:26:20;199.10;;;17.47;;
3911;SDS011;1971;51.778;10.330;2023-12-14T09:28:50;82.03;;;7.13;;
3911;SDS011;1971;51.778;10.330;2023-12-14T09:31:20;199.27;;;18.60;;
3911;SDS011;1971;51.778;10.330;2023-12-14T09:33:50;85.80;;;9.47;;
3911;SDS011;1971;51.778;10.330;2023-12-14T09:36:21;16.20;;;2.80;;
3911;SDS011;1971;51.778;10.330;2023-12-14T09:38:51;89.70;;;10.93;;
3911;SDS011;1971;51.778;10.330;2023-12-14T09:41:23;196.43;;;15.07;;
3911;SDS011;1971;51.778;10.330;2023-12-14T09:43:53;292.23;;;20.27;;
3911;SDS011;1971;51.778;10.330;2023-12-14T09:46:25;260.17;;;18.17;;
3911;SDS011;1971;51.778;10.330;2023-12-14T09:48:56;198.63;;;17.50;;
3911;SDS011;1971;51.778;10.330;2023-12-14T09:51:31;171.77;;;13.37;;
3911;SDS011;1971;51.778;10.330;2023-12-14T09:54:01;159.03;;;13.30;;
3911;SDS011;1971;51.778;10.330;2023-12-14T09:56:34;195.97;;;14.60;;
3911;SDS011;1971;51.778;10.330;2023-12-14T09:59:04;245.10;;;16.43;;
3911;SDS011;1971;51.778;10.330;2023-12-14T10:01:36;135.13;;;8.77;;
3911;SDS011;1971;51.778;10.330;2023-12-14T10:04:09;86.60;;;7.17;;
3911;SDS011;1971;51.778;10.330;2023-12-14T10:06:41;214.50;;;14.57;;
3911;SDS011;1971;51.778;10.330;2023-12-14T10:09:12;57.57;;;8.07;;
3911;SDS011;1971;51.778;10.330;2023-12-14T10:11:48;51.30;;;7.63;;
3911;SDS011;1971;51.778;10.330;2023-12-14T10:14:30;92.47;;;10.03;;
3911;SDS011;1971;51.778;10.330;2023-12-14T10:17:13;59.20;;;6.87;;
3911;SDS011;1971;51.778;10.330;2023-12-14T10:19:48;78.97;;;9.93;;
3911;SDS011;1971;51.778;10.330;2023-12-14T10:22:18;31.67;;;6.50;;
3911;SDS011;1971;51.778;10.330;2023-12-14T10:24:49;14.03;;;3.93;;
3911;SDS011;1971;51.778;10.330;2023-12-14T10:27:21;27.17;;;4.10;;
3911;SDS011;1971;51.778;10.330;2023-12-14T10:29:51;13.60;;;4.60;;
3911;SDS011;1971;51.778;10.330;2023-12-14T10:32:22;8.20;;;3.50;;
3911;SDS011;1971;51.778;10.330;2023-12-14T10:34:53;5.17;;;2.73;;
3911;SDS011;1971;51.778;10.330;2023-12-14T10:37:23;3.47;;;2.50;;
3911;SDS011;1971;51.778;10.330;2023-12-14T10:39:55;4.97;;;3.33;;
3911;SDS011;1971;51.778;10.330;2023-12-14T10:42:28;2.50;;;2.30;;
3911;SDS011;1971;51.778;10.330;2023-12-14T10:44:59;2.70;;;2.33;;
3911;SDS011;1971;51.778;10.330;2023-12-14T10:47:44;1.70;;;1.60;;
3911;SDS011;1971;51.778;10.330;2023-12-14T10:50:15;2.80;;;2.00;;
3911;SDS011;1971;51.778;10.330;2023-12-14T10:52:48;8.63;;;1.87;;
3911;SDS011;1971;51.778;10.330;2023-12-14T10:55:21;2.17;;;1.97;;
3911;SDS011;1971;51.778;10.330;2023-12-14T10:57:57;1.77;;;1.67;;
3911;SDS011;1971;51.778;10.330;2023-12-14T11:00:28;2.47;;;2.30;;
3911;SDS011;1971;51.778;10.330;2023-12-14T11:02:58;2.23;;;2.03;;
3911;SDS011;1971;51.778;10.330;2023-12-14T11:05:29;2.73;;;2.53;;
3911;SDS011;1971;51.778;10.330;2023-12-14T11:08:02;2.17;;;1.97;;
3911;SDS011;1971;51.778;10.330;2023-12-14T11:10:37;2.03;;;1.83;;
3911;SDS011;1971;51.778;10.330;2023-12-14T11:13:11;1.97;;;1.87;;
3911;SDS011;1971;51.778;10.330;2023-12-14T11:15:45;3.23;;;2.80;;
3911;SDS011;1971;51.778;10.330;2023-12-14T11:18:19;2.13;;;1.93;;
3911;SDS011;1971;51.778;10.330;2023-12-14T11:20:58;4.10;;;2.33;;
3911;SDS011;1971;51.778;10.330;2023-12-14T11:23:30;3.30;;;2.73;;
3911;SDS011;1971;51.778;10.330;2023-12-14T11:26:02;3.13;;;2.63;;
3911;SDS011;1971;51.778;10.330;2023-12-14T11:28:36;3.90;;;2.93;;
3911;SDS011;1971;51.778;10.330;2023-12-14T11:31:10;2.47;;;2.27;;
3911;SDS011;1971;51.778;10.330;2023-12-14T11:33:40;3.03;;;2.73;;
3911;SDS011;1971;51.778;10.330;2023-12-14T11:36:11;2.37;;;2.17;;
3911;SDS011;1971;51.778;10.330;2023-12-14T11:38:42;3.17;;;2.97;;
3911;SDS011;1971;51.778;10.330;2023-12-14T11:41:15;3.37;;;2.60;;
3911;SDS011;1971;51.778;10.330;2023-12-14T11:43:48;2.03;;;1.77;;
3911;SDS011;1971;51.778;10.330;2023-12-14T11:46:16;2.43;;;2.23;;
3911;SDS011;1971;51.778;10.330;2023-12-14T11:48:47;2.10;;;2.00;;
3911;SDS011;1971;51.778;10.330;2023-12-14T11:51:18;1.93;;;1.83;;
3911;SDS011;1971;51.778;10.330;2023-12-14T11:53:49;2.23;;;2.13;;
3911;SDS011;1971;51.778;10.330;2023-12-14T11:56:19;2.03;;;1.83;;
3911;SDS011;1971;51.778;10.330;2023-12-14T11:58:54;1.43;;;1.33;;
3911;SDS011;1971;51.778;10.330;2023-12-14T12:01:24;1.80;;;1.60;;
3911;SDS011;1971;51.778;10.330;2023-12-14T12:03:55;3.03;;;2.70;;
3911;SDS011;1971;51.778;10.330;2023-12-14T12:06:26;2.53;;;2.37;;
3911;SDS011;1971;51.778;10.330;2023-12-14T12:08:57;1.93;;;1.83;;
3911;SDS011;1971;51.778;10.330;2023-12-14T12:11:27;1.40;;;1.30;;
3911;SDS011;1971;51.778;10.330;2023-12-14T12:14:00;1.33;;;1.23;;
3911;SDS011;1971;51.778;10.330;2023-12-14T12:16:30;1.93;;;1.80;;
3911;SDS011;1971;51.778;10.330;2023-12-14T12:19:01;1.93;;;1.83;;
3911;SDS011;1971;51.778;10.330;2023-12-14T12:21:32;1.20;;;1.10;;
3911;SDS011;1971;51.778;10.330;2023-12-14T12:24:02;1.47;;;1.37;;
3911;SDS011;1971;51.778;10.330;2023-12-14T12:26:51;7.80;;;1.70;;
3911;SDS011;1971;51.778;10.330;2023-12-14T12:29:25;4.87;;;2.77;;
3911;SDS011;1971;51.778;10.330;2023-12-14T12:31:55;16.50;;;3.80;;
3911;SDS011;1971;51.778;10.330;2023-12-14T12:34:25;10.43;;;3.23;;
3911;SDS011;1971;51.778;10.330;2023-12-14T12:36:55;3.83;;;2.70;;
3911;SDS011;1971;51.778;10.330;2023-12-14T12:39:25;3.03;;;2.70;;
3911;SDS011;1971;51.778;10.330;2023-12-14T12:41:56;3.67;;;3.00;;
3911;SDS011;1971;51.778;10.330;2023-12-14T12:44:28;3.20;;;2.90;;
3911;SDS011;1971;51.778;10.330;2023-12-14T12:46:59;3.30;;;2.63;;
3911;SDS011;1971;51.778;10.330;2023-12-14T12:49:36;3.37;;;3.07;;
3911;SDS011;1971;51.778;10.330;2023-12-14T12:52:10;3.43;;;3.10;;
3911;SDS011;1971;51.778;10.330;2023-12-14T12:54:40;3.80;;;3.10;;
3911;SDS011;1971;51.778;10.330;2023-12-14T12:57:10;4.70;;;3.97;;
3911;SDS011;1971;51.778;10.330;2023-12-14T13:23:29;339.53;;;28.60;;
3911;SDS011;1971;51.778;10.330;2023-12-14T13:26:00;202.70;;;21.33;;
3911;SDS011;1971;51.778;10.330;2023-12-14T13:28:30;46.27;;;8.70;;
3911;SDS011;1971;51.778;10.330;2023-12-14T13:31:01;3.53;;;3.20;;
3911;SDS011;1971;51.778;10.330;2023-12-14T13:33:33;3.83;;;3.03;;
3911;SDS011;1971;51.778;10.330;2023-12-14T13:36:03;4.67;;;4.20;;
3911;SDS011;1971;51.778;10.330;2023-12-14T13:38:37;2.53;;;2.33;;
3911;SDS011;1971;51.778;10.330;2023-12-14T13:41:08;2.87;;;2.40;;
3911;SDS011;1971;51.778;10.330;2023-12-14T13:43:38;3.70;;;3.40;;
3911;SDS011;1971;51.778;10.330;2023-12-14T13:46:09;3.70;;;3.40;;
3911;SDS011;1971;51.778;10.330;2023-12-14T13:48:47;4.63;;;4.23;;
3911;SDS011;1971;51.778;10.330;2023-12-14T13:51:19;4.80;;;3.80;;
3911;SDS011;1971;51.778;10.330;2023-12-14T13:53:52;5.40;;;4.97;;
3911;SDS011;1971;51.778;10.330;2023-12-14T13:56:22;4.33;;;3.93;;
3911;SDS011;1971;51.778;10.330;2023-12-14T13:58:54;3.73;;;3.33;;
3911;SDS011;1971;51.778;10.330;2023-12-14T14:01:25;5.00;;;4.60;;
3911;SDS011;1971;51.778;10.330;2023-12-14T14:03:54;4.43;;;3.63;;
3911;SDS011;1971;51.778;10.330;2023-12-14T14:06:24;6.10;;;5.53;;
3911;SDS011;1971;51.778;10.330;2023-12-14T14:08:57;5.20;;;4.40;;
3911;SDS011;1971;51.778;10.330;2023-12-14T14:11:27;6.97;;;6.30;;
3911;SDS011;1971;51.778;10.330;2023-12-14T14:13:58;10.47;;;5.87;;
3911;SDS011;1971;51.778;10.330;2023-12-14T14:16:29;157.83;;;17.50;;
3911;SDS011;1971;51.778;10.330;2023-12-14T14:18:59;167.33;;;19.83;;
3911;SDS011;1971;51.778;10.330;2023-12-14T14:21:29;208.97;;;20.73;;
3911;SDS011;1971;51.778;10.330;2023-12-14T14:24:02;234.00;;;25.40;;
3911;SDS011;1971;51.778;10.330;2023-12-14T14:26:33;179.43;;;19.20;;
3911;SDS011;1971;51.778;10.330;2023-12-14T14:29:03;146.77;;;15.20;;
3911;SDS011;1971;51.778;10.330;2023-12-14T14:31:38;101.17;;;13.40;;
3911;SDS011;1971;51.778;10.330;2023-12-14T14:34:09;146.13;;;12.53;;
3911;SDS011;1971;51.778;10.330;2023-12-14T14:36:39;50.27;;;6.70;;
3911;SDS011;1971;51.778;10.330;2023-12-14T14:39:13;86.03;;;9.43;;
3911;SDS011;1971;51.778;10.330;2023-12-14T14:41:45;135.87;;;13.27;;
3911;SDS011;1971;51.778;10.330;2023-12-14T14:44:16;196.20;;;21.70;;
3911;SDS011;1971;51.778;10.330;2023-12-14T14:46:46;197.57;;;19.10;;
3911;SDS011;1971;51.778;10.330;2023-12-14T14:49:16;203.73;;;20.10;;
3911;SDS011;1971;51.778;10.330;2023-12-14T14:51:46;239.07;;;22.63;;
3911;SDS011;1971;51.778;10.330;2023-12-14T14:54:19;354.83;;;28.20;;
3911;SDS011;1971;51.778;10.330;2023-12-14T14:56:49;210.37;;;18.10;;
3911;SDS011;1971;51.778;10.330;2023-12-14T14:59:19;239.80;;;19.93;;
3911;SDS011;1971;51.778;10.330;2023-12-14T15:01:49;346.33;;;26.50;;
3911;SDS011;1971;51.778;10.330;2023-12-14T15:04:31;264.93;;;25.57;;
3911;SDS011;1971;51.778;10.330;2023-12-14T15:07:04;169.90;;;14.13;;
3911;SDS011;1971;51.778;10.330;2023-12-14T15:09:37;160.87;;;15.77;;
3911;SDS011;1971;51.778;10.330;2023-12-14T15:12:08;207.80;;;18.70;;
3911;SDS011;1971;51.778;10.330;2023-12-14T15:14:38;171.43;;;16.30;;
3911;SDS011;1971;51.778;10.330;2023-12-14T15:17:08;228.67;;;17.83;;
3911;SDS011;1971;51.778;10.330;2023-12-14T15:19:38;304.03;;;23.33;;
3911;SDS011;1971;51.778;10.330;2023-12-14T15:22:17;100.90;;;10.43;;
3911;SDS011;1971;51.778;10.330;2023-12-14T15:24:50;58.17;;;7.07;;
3911;SDS011;1971;51.778;10.330;2023-12-14T15:27:20;6.77;;;4.07;;
3911;SDS011;1971;51.778;10.330;2023-12-14T15:29:51;4.07;;;2.87;;
3911;SDS011;1971;51.778;10.330;2023-12-14T15:32:22;3.97;;;3.33;;